CheckWX is a tool to help pilots better visualize weather data.  It is not intended as a substitute for an official pre-flight weather briefing.

06:57:45 UTC

MGGT TAF
La Aurora Airport
Guatemala City, Guatemala
MGGT 160500Z 1606/1706 02008KT 2000 BR BKN008 TX26/1620Z TN17/1612Z BECMG 1614/1616 18008KT 8000 SCT018 TEMPO 1619/1702 TSRA SCT018TCU FEW025CB BECMG 1702/1704 VRB03KT SCT016

Jun-16@
06:00 UTC

Jun-16 @ 06:00 UTC

Jun-16@
14:00 UTC

Jun-16 @ 14:00 UTC

MGGT 160500Z 1606/1706 02008KT 2000 BR BKN008 TX26/1620Z TN17/1612Z
Wind
  • 020° at 8 KTS
Conditions
Mist
Cloud Levels
  • Broken at 800' AGL

Jun-16@
14:00 UTC

Jun-16 @ 14:00 UTC

Jun-17@
02:00 UTC

Jun-17 @ 02:00 UTC

BECMG 1614/1616 18008KT 8000 SCT018

Becoming

Becoming Conditions expected by Sun, Jun 16, 2019 @ 16:00 UTC

Wind
  • 180° at 8 KTS
Conditions
Mist
Cloud Levels
  • Scattered at 1,800' AGL

Jun-16@
19:00 UTC

Jun-16 @ 19:00 UTC

Jun-17@
02:00 UTC

Jun-17 @ 02:00 UTC

TEMPO 1619/1702 TSRA SCT018TCU FEW025CB

Temporary

Temporary Changes expected for less than half the time period

Conditions
Thunderstorm, Rain
Cloud Levels
  • Scattered at 1,800' AGL
  • Few at 2,500' AGL

Jun-17@
02:00 UTC

Jun-17 @ 02:00 UTC

Jun-17@
06:00 UTC

Jun-17 @ 06:00 UTC

BECMG 1702/1704 VRB03KT SCT016

Becoming

Becoming Conditions expected by Mon, Jun 17, 2019 @ 04:00 UTC

Wind
  • Variable at 3 KTS
Conditions
Mist
Cloud Levels
  • Scattered at 1,600' AGL